Aérodrome :
LOGIN :

S'inscrire | Disclaimer

   EN    FR    IT 

 










Légende :    VFR   VFR Marginal   IFR   IFR Intensif   IFR Très Intensif
Visi : 
Plafond : 
>= 8 km
>= 3000ft
5 à 8 km
1000 à 3000 ft
1500m à 5 km
500 à 1000 ft
800 à 1500m
200 à 500 ft
< 800m
< 200 ft
Symboles :   Orages  Brouillard  Fortes neiges  Fortes précipitations  Vent > 20 kt
SIGMETs :   Divers  Orages  Givrage  Turbulence  Onde Orograph.  Cendres Volcan.







- Altitude de l'aérodrome : 23 ft
- Code IATA : XFW


EDHI - Hamburg Finkenwerder

DERNIER METAR :
  • 251450Z 06008KT 9999 VCSH BKN049CB 16/13 Q1022

METARs EXPIRÉS :
  • 251420Z 08010KT 040V120 9999 VCSH BKN030CB 18/12 Q1022
  • 251350Z 08007KT 050V110 9999 SCT035 18/13 Q1022
  • 251320Z 08008KT 9999 SCT030 BKN070 18/13 Q1022
  • 251250Z 08007KT 050V120 9999 SCT037 19/14 Q1022
  • 251220Z 09008KT 060V120 9999 SCT030 BKN083 18/13 Q1022
  • 251150Z 08007KT 050V120 9999 SCT023 19/14 Q1022

TAF TAF EDHI
Valide du 25 à 15h jusqu'au 25 à 21h UTC


251400Z 2515/2521 07007KT 9999 SCT030
TEMPO 2515/2517 4000 SHRA BKN012CB
PROB30
TEMPO 2515/2517 TSRA
Pas de NOTAMs connus pour ce terrain.



MET'MAP, la Météo Aéronautique d'un coup d'oeil ! - Copyright ORBIFLY Décembre 2007 - Disclaimer

ORBIFLY MET'MAP TEAM :

Programmation & Développement : Alexandra Zaïnal
Conception & Développement : Baudouin d'Aumeries
Co-Programmation & Développement : Marc-Olivier Méhu
Soutien technique & logistique : Manuel Goepfert

Contact : metmap@orbifly.com




SOURCES & CREDITS :

   NOAA